Time;durP1;ratioP1;P1;durP2;ratioP2;P2;SDS_P1;SDS_P2;PMS_P1;PMS_P2;Temp;Humidity;BMP_temperature;BMP_pressure;BME280_temperature;BME280_humidity;BME280_pressure;Samples;Min_cycle;Max_cycle;Signal;HPM_P1;HPM_P2
2021/08/03 00:00:23;;;;;;;2.65;1.85;;;16.10;99.90;;;;;;5129674;27;20030;-86
2021/08/03 00:02:51;;;;;;;4.25;2.15;;;16.10;99.90;;;;;;5119041;27;20112;-88
2021/08/03 00:05:23;;;;;;;3.53;2.05;;;16.10;99.90;;;;;;5145730;27;20034;-88
2021/08/03 00:07:58;;;;;;;4.22;2.20;;;16.00;99.90;;;;;;5143612;27;20389;-89
2021/08/03 00:10:25;;;;;;;4.00;2.10;;;16.00;99.90;;;;;;5138041;27;20035;-88
2021/08/03 00:12:52;;;;;;;6.15;1.88;;;16.00;99.90;;;;;;5135473;27;20109;-88
2021/08/03 00:15:22;;;;;;;2.63;1.60;;;15.90;99.90;;;;;;5137734;27;20031;-88
2021/08/03 00:17:48;;;;;;;4.28;2.22;;;15.90;99.90;;;;;;5137552;27;20042;-89
2021/08/03 00:20:14;;;;;;;2.50;1.65;;;15.90;99.90;;;;;;5139070;27;20027;-82
2021/08/03 00:22:41;;;;;;;3.97;2.22;;;15.90;99.90;;;;;;5136219;27;20039;-85
2021/08/03 00:25:08;;;;;;;2.85;2.03;;;15.80;99.90;;;;;;5140785;27;20441;-86
2021/08/03 00:27:34;;;;;;;4.38;2.22;;;15.80;99.90;;;;;;5139462;27;20083;-84
2021/08/03 00:30:01;;;;;;;4.10;2.08;;;15.80;99.90;;;;;;5131754;27;20035;-84
2021/08/03 00:32:27;;;;;;;4.50;2.13;;;15.80;99.90;;;;;;5132787;27;20043;-83
2021/08/03 00:34:52;;;;;;;4.65;2.60;;;15.80;99.90;;;;;;5145901;27;20564;-84
2021/08/03 00:37:18;;;;;;;3.40;2.50;;;15.70;99.90;;;;;;5134136;27;20138;-84
2021/08/03 00:39:44;;;;;;;3.47;2.70;;;15.70;99.90;;;;;;5139250;27;20069;-84
2021/08/03 00:42:09;;;;;;;4.47;2.40;;;15.70;99.90;;;;;;5134079;27;20015;-83
2021/08/03 00:44:49;;;;;;;4.82;3.22;;;15.70;99.90;;;;;;5135786;27;20054;-81
2021/08/03 00:47:17;;;;;;;6.80;2.85;;;15.70;99.90;;;;;;5136031;27;20489;-81
2021/08/03 00:49:43;;;;;;;3.05;2.20;;;15.60;99.90;;;;;;5131020;27;20034;-81
2021/08/03 00:52:12;;;;;;;3.42;2.10;;;15.60;99.90;;;;;;5134129;27;20246;-81
2021/08/03 00:54:38;;;;;;;3.35;1.98;;;15.60;99.90;;;;;;5135808;27;20027;-82
2021/08/03 00:57:05;;;;;;;3.70;2.38;;;15.60;99.90;;;;;;5139648;27;20108;-83
2021/08/03 00:59:31;;;;;;;4.22;2.70;;;15.60;99.90;;;;;;5142004;27;20042;-82
2021/08/03 01:01:57;;;;;;;5.60;2.42;;;15.60;99.90;;;;;;5138281;27;20326;-82
2021/08/03 01:04:22;;;;;;;3.40;2.03;;;15.60;99.90;;;;;;5142813;27;20374;-81
2021/08/03 01:07:03;;;;;;;3.65;2.28;;;15.60;99.90;;;;;;5139101;27;20031;-81
2021/08/03 01:09:57;;;;;;;3.28;2.25;;;15.60;99.90;;;;;;5140281;27;20034;-82
2021/08/03 01:12:38;;;;;;;2.53;1.98;;;15.50;99.90;;;;;;5145062;27;20530;-81
2021/08/03 01:15:13;;;;;;;2.88;2.25;;;15.50;99.90;;;;;;5141503;27;20073;-82
2021/08/03 01:18:07;;;;;;;4.13;2.50;;;15.50;99.90;;;;;;5143128;27;20476;-82
2021/08/03 01:20:46;;;;;;;5.18;2.78;;;15.50;99.90;;;;;;5139239;27;20102;-81
2021/08/03 01:23:37;;;;;;;6.32;2.67;;;15.40;99.90;;;;;;5144150;27;20067;-82
2021/08/03 01:26:23;;;;;;;4.32;2.50;;;15.40;99.90;;;;;;5143073;27;20011;-82
2021/08/03 01:28:55;;;;;;;4.47;2.20;;;15.40;99.90;;;;;;5142696;27;20027;-82
2021/08/03 01:31:29;;;;;;;3.80;2.33;;;15.40;99.90;;;;;;5139724;27;20023;-81
2021/08/03 01:34:08;;;;;;;3.45;2.30;;;15.40;99.90;;;;;;5138404;27;20083;-83
2021/08/03 01:36:35;;;;;;;6.90;3.42;;;15.40;99.90;;;;;;5138907;27;20030;-82
2021/08/03 01:39:02;;;;;;;4.38;2.55;;;15.40;99.90;;;;;;5145200;27;20098;-78
2021/08/03 01:41:29;;;;;;;5.07;3.10;;;15.30;99.90;;;;;;5141419;27;20060;-82
2021/08/03 01:43:56;;;;;;;6.15;2.90;;;15.30;99.90;;;;;;5137020;27;20033;-82
2021/08/03 01:46:23;;;;;;;5.93;2.85;;;15.30;99.90;;;;;;5141957;27;20160;-81
2021/08/03 01:48:53;;;;;;;3.75;2.47;;;15.30;99.90;;;;;;5146545;27;20037;-80
2021/08/03 01:51:20;;;;;;;2.87;2.30;;;15.30;99.90;;;;;;5140095;27;20030;-81
2021/08/03 01:53:48;;;;;;;4.25;2.42;;;15.30;99.90;;;;;;5138930;27;20026;-79
2021/08/03 01:56:15;;;;;;;3.92;1.92;;;15.30;99.90;;;;;;5148008;27;20072;-81
2021/08/03 01:58:42;;;;;;;5.38;2.10;;;15.30;99.90;;;;;;5144140;27;20031;-81
2021/08/03 02:01:08;;;;;;;4.38;2.03;;;15.30;99.90;;;;;;5143536;27;20057;-82
2021/08/03 02:03:34;;;;;;;2.70;1.75;;;15.30;99.90;;;;;;5145799;27;20046;-78
2021/08/03 02:06:02;;;;;;;1.88;1.63;;;15.30;99.90;;;;;;5134115;27;20474;-82
2021/08/03 02:08:29;;;;;;;2.83;2.17;;;15.30;99.90;;;;;;5140599;27;20118;-81
2021/08/03 02:10:55;;;;;;;3.55;1.80;;;15.30;99.90;;;;;;5141482;27;20053;-83
2021/08/03 02:13:22;;;;;;;3.78;2.00;;;15.30;99.90;;;;;;5144273;27;20031;-79
2021/08/03 02:15:48;;;;;;;3.58;2.13;;;15.30;99.90;;;;;;5141913;27;20031;-83
2021/08/03 02:18:15;;;;;;;2.83;2.05;;;15.20;99.90;;;;;;5142383;27;20028;-82
2021/08/03 02:20:44;;;;;;;3.25;1.88;;;15.20;99.90;;;;;;5142993;27;20144;-80
2021/08/03 02:23:09;;;;;;;4.07;2.28;;;15.20;99.90;;;;;;5142321;27;20061;-82
2021/08/03 02:25:35;;;;;;;5.18;2.15;;;15.20;99.90;;;;;;5140556;27;20389;-80
2021/08/03 02:28:02;;;;;;;4.50;2.30;;;15.20;99.90;;;;;;5138930;27;20046;-84
2021/08/03 02:30:29;;;;;;;3.72;1.70;;;15.20;99.90;;;;;;5137034;27;20031;-82
2021/08/03 02:33:35;;;;;;;3.80;2.30;;;15.10;99.90;;;;;;5140940;27;20031;-81
2021/08/03 02:36:04;;;;;;;3.65;2.38;;;15.10;99.90;;;;;;5079111;27;20039;-82
2021/08/03 02:38:36;;;;;;;3.58;1.92;;;15.00;99.90;;;;;;5138141;27;20027;-81
2021/08/03 02:41:02;;;;;;;3.72;1.77;;;15.00;99.90;;;;;;5139774;27;20026;-82
2021/08/03 02:43:29;;;;;;;3.08;2.10;;;15.00;99.90;;;;;;5147384;27;20027;-83
2021/08/03 02:46:02;;;;;;;2.97;2.22;;;15.00;99.90;;;;;;5139271;27;20126;-87
2021/08/03 02:48:29;;;;;;;3.72;2.22;;;14.90;99.90;;;;;;5139643;27;20022;-80
2021/08/03 02:50:55;;;;;;;7.47;2.30;;;14.90;99.90;;;;;;5141303;27;20023;-80
2021/08/03 02:53:32;;;;;;;5.13;1.98;;;14.90;99.90;;;;;;5135730;27;20026;-79
2021/08/03 02:56:14;;;;;;;3.97;2.13;;;14.90;99.90;;;;;;5140199;27;20019;-80
2021/08/03 02:59:02;;;;;;;3.58;2.40;;;14.80;99.90;;;;;;5146255;27;20098;-78
2021/08/03 03:01:32;;;;;;;3.97;2.90;;;14.80;99.90;;;;;;5141685;27;20030;-80
2021/08/03 03:04:29;;;;;;;5.63;2.40;;;14.80;99.90;;;;;;5138918;27;20106;-84
2021/08/03 03:07:02;;;;;;;5.13;2.70;;;14.60;99.90;;;;;;5108441;27;20031;-82
2021/08/03 03:09:36;;;;;;;4.53;2.75;;;14.50;99.90;;;;;;5137667;27;20114;-80
2021/08/03 03:12:04;;;;;;;5.38;2.80;;;14.40;99.90;;;;;;5142993;27;20035;-79
2021/08/03 03:14:33;;;;;;;5.85;3.95;;;14.40;99.90;;;;;;5127164;27;20019;-82
2021/08/03 03:17:01;;;;;;;3.75;2.80;;;14.40;99.90;;;;;;5128057;27;20019;-81
2021/08/03 03:19:27;;;;;;;6.28;2.95;;;14.40;99.90;;;;;;5146282;27;20099;-82
2021/08/03 03:21:54;;;;;;;4.63;3.00;;;14.30;99.90;;;;;;5152974;27;20050;-80
2021/08/03 03:24:20;;;;;;;3.97;2.75;;;14.30;99.90;;;;;;5121472;27;20060;-83
2021/08/03 03:26:52;;;;;;;7.28;3.22;;;14.40;99.90;;;;;;5145912;27;20031;-80
2021/08/03 03:29:19;;;;;;;5.25;3.10;;;14.30;99.90;;;;;;5149623;27;20508;-81
2021/08/03 03:31:47;;;;;;;7.20;2.95;;;14.30;99.90;;;;;;5149407;27;20043;-83
2021/08/03 03:34:14;;;;;;;6.60;3.20;;;14.30;99.90;;;;;;5145608;27;20409;-79
2021/08/03 03:36:42;;;;;;;3.83;3.03;;;14.40;99.90;;;;;;5145630;27;20046;-78
2021/08/03 03:39:09;;;;;;;5.28;3.15;;;14.40;99.90;;;;;;5144331;27;20055;-80
2021/08/03 03:41:35;;;;;;;3.53;2.28;;;14.50;99.90;;;;;;5126103;27;20023;-82
2021/08/03 03:44:01;;;;;;;4.45;2.58;;;14.50;99.90;;;;;;5144209;27;20068;-81
2021/08/03 03:46:34;;;;;;;8.88;3.25;;;14.50;99.90;;;;;;5143126;27;20035;-80
2021/08/03 03:49:10;;;;;;;4.15;3.00;;;14.70;99.90;;;;;;5136309;27;20024;-78
2021/08/03 03:51:40;;;;;;;4.90;3.30;;;14.70;99.90;;;;;;5144721;27;20065;-80
2021/08/03 03:54:10;;;;;;;4.22;2.42;;;14.80;99.90;;;;;;5140984;27;20019;-81
2021/08/03 03:56:40;;;;;;;5.40;2.70;;;14.80;99.90;;;;;;5142404;27;20123;-80
2021/08/03 03:59:06;;;;;;;4.80;3.10;;;14.80;99.90;;;;;;5143975;27;20026;-82
2021/08/03 04:01:32;;;;;;;4.75;2.80;;;14.90;99.90;;;;;;5133178;27;20019;-80
2021/08/03 04:04:00;;;;;;;3.90;2.67;;;14.90;99.90;;;;;;5138987;27;20023;-81
2021/08/03 04:06:26;;;;;;;4.93;2.70;;;15.00;99.90;;;;;;5149594;27;20283;-80
2021/08/03 04:08:52;;;;;;;4.40;2.92;;;15.00;99.90;;;;;;5148851;27;20167;-83
2021/08/03 04:11:18;;;;;;;4.75;2.78;;;15.00;99.90;;;;;;5153507;27;20019;-82
2021/08/03 04:13:45;;;;;;;4.72;2.85;;;15.10;99.90;;;;;;5147310;27;20035;-81
2021/08/03 04:16:11;;;;;;;7.40;2.75;;;15.20;99.90;;;;;;5139007;27;20039;-81
2021/08/03 04:18:36;;;;;;;5.70;2.95;;;15.20;99.90;;;;;;5138393;27;20042;-82
2021/08/03 04:21:02;;;;;;;4.95;2.75;;;15.10;99.90;;;;;;5144218;27;20034;-82
2021/08/03 04:23:28;;;;;;;3.95;2.60;;;15.20;99.90;;;;;;5139019;27;20519;-82
2021/08/03 04:25:54;;;;;;;7.22;2.67;;;15.10;99.90;;;;;;5141982;27;20034;-81
2021/08/03 04:28:19;;;;;;;4.93;3.00;;;15.20;99.90;;;;;;5140326;27;20054;-81
2021/08/03 04:30:45;;;;;;;4.43;3.25;;;15.30;99.90;;;;;;5140940;27;20011;-83
2021/08/03 04:33:10;;;;;;;7.95;3.78;;;15.40;99.90;;;;;;5139760;27;20156;-81
2021/08/03 04:35:36;;;;;;;8.18;3.28;;;15.50;99.90;;;;;;5142168;27;20030;-81
2021/08/03 04:38:01;;;;;;;5.97;2.67;;;15.50;99.90;;;;;;5137279;27;20026;-83
2021/08/03 04:40:27;;;;;;;4.13;3.72;;;15.50;99.90;;;;;;5141908;27;20117;-81
2021/08/03 04:42:59;;;;;;;7.80;3.63;;;15.60;99.90;;;;;;5138708;27;20038;-82
2021/08/03 04:45:25;;;;;;;6.72;3.30;;;15.60;99.90;;;;;;5143718;27;20271;-81
2021/08/03 04:47:52;;;;;;;8.50;3.58;;;15.60;99.90;;;;;;5142539;27;20033;-81
2021/08/03 04:50:23;;;;;;;7.60;3.00;;;15.60;99.90;;;;;;5128206;27;20044;-79
2021/08/03 04:52:49;;;;;;;3.97;2.90;;;15.60;99.90;;;;;;5145974;27;20509;-82
2021/08/03 04:55:15;;;;;;;4.35;3.40;;;15.60;99.90;;;;;;5147651;27;20043;-83
2021/08/03 04:57:42;;;;;;;4.95;3.20;;;15.60;99.90;;;;;;5132941;27;20491;-73
2021/08/03 05:00:10;;;;;;;4.45;3.47;;;15.50;99.90;;;;;;5145140;27;20037;-73
2021/08/03 05:02:36;;;;;;;6.57;3.97;;;15.60;99.90;;;;;;5136749;27;20072;-73
2021/08/03 05:05:06;;;;;;;7.15;4.03;;;15.50;99.90;;;;;;5145662;27;20369;-74
2021/08/03 05:07:31;;;;;;;5.57;2.85;;;15.60;99.90;;;;;;5137542;27;20023;-74
2021/08/03 05:10:01;;;;;;;8.68;3.28;;;15.70;99.90;;;;;;5135823;27;20538;-73
2021/08/03 05:12:27;;;;;;;4.78;2.80;;;15.80;99.90;;;;;;5143552;27;20058;-73
2021/08/03 05:14:58;;;;;;;7.97;3.83;;;15.80;99.90;;;;;;5144388;27;20058;-90
2021/08/03 05:17:24;;;;;;;5.22;3.05;;;15.80;99.90;;;;;;5138727;27;20034;-90
2021/08/03 05:19:51;;;;;;;6.65;4.50;;;15.90;99.90;;;;;;5140198;27;20023;-88
2021/08/03 05:22:20;;;;;;;7.10;3.15;;;15.90;99.90;;;;;;5114205;27;20054;-90
2021/08/03 05:24:45;;;;;;;4.78;2.70;;;16.00;99.90;;;;;;5136122;27;20026;-89
2021/08/03 05:27:11;;;;;;;5.43;3.10;;;16.00;99.90;;;;;;5147965;27;20023;-89
2021/08/03 05:29:36;;;;;;;6.82;3.88;;;16.10;99.90;;;;;;5134331;27;20023;-88
2021/08/03 05:32:02;;;;;;;4.30;3.30;;;16.30;99.90;;;;;;5143042;27;20037;-88
2021/08/03 05:34:28;;;;;;;7.07;3.03;;;16.50;99.90;;;;;;5125730;27;20022;-88
2021/08/03 05:36:54;;;;;;;7.68;3.65;;;16.90;99.90;;;;;;5140687;27;20019;-89
2021/08/03 05:39:20;;;;;;;7.65;3.00;;;16.70;99.90;;;;;;5146027;27;20034;-88
2021/08/03 05:41:46;;;;;;;7.43;2.80;;;16.70;99.90;;;;;;5128463;27;20101;-88
2021/08/03 05:44:11;;;;;;;5.78;3.28;;;16.80;99.90;;;;;;5144826;27;20076;-88
2021/08/03 05:46:37;;;;;;;9.82;5.25;;;16.90;99.90;;;;;;5128817;27;20023;-78
2021/08/03 05:49:05;;;;;;;5.82;4.10;;;16.90;99.90;;;;;;5136771;27;20030;-79
2021/08/03 05:51:30;;;;;;;4.05;3.10;;;17.00;99.90;;;;;;5142766;27;20072;-79
2021/08/03 05:53:56;;;;;;;6.88;4.43;;;16.90;99.90;;;;;;5134176;27;20023;-79
2021/08/03 05:56:21;;;;;;;11.30;4.03;;;16.90;99.90;;;;;;5136185;27;20015;-79
2021/08/03 05:58:47;;;;;;;4.32;2.85;;;17.00;99.90;;;;;;5138209;27;20041;-79
2021/08/03 06:01:12;;;;;;;4.10;2.88;;;16.90;99.90;;;;;;5131801;27;20095;-78
2021/08/03 06:03:38;;;;;;;7.80;4.05;;;16.80;99.90;;;;;;5126752;27;20019;-79
2021/08/03 06:06:07;;;;;;;7.30;3.53;;;16.80;99.90;;;;;;5141204;27;20026;-77
2021/08/03 06:08:34;;;;;;;8.27;5.63;;;16.90;99.90;;;;;;5137345;27;20046;-79
2021/08/03 06:11:01;;;;;;;5.65;3.67;;;17.00;99.90;;;;;;5144476;27;20110;-79
2021/08/03 06:13:28;;;;;;;7.63;3.50;;;17.10;99.90;;;;;;5140823;27;20499;-79
2021/08/03 06:15:57;;;;;;;5.68;3.28;;;17.20;99.90;;;;;;5142863;27;20023;-79
2021/08/03 06:18:31;;;;;;;7.88;4.78;;;17.40;99.90;;;;;;5137695;27;20091;-78
2021/08/03 06:20:58;;;;;;;4.57;3.10;;;17.40;99.90;;;;;;5135857;27;20164;-78
2021/08/03 06:23:25;;;;;;;9.27;3.38;;;17.40;99.90;;;;;;5142141;27;20050;-78
2021/08/03 06:25:52;;;;;;;6.22;3.42;;;17.30;99.90;;;;;;5138453;27;20018;-77
2021/08/03 06:28:21;;;;;;;6.40;3.42;;;17.30;99.90;;;;;;5141766;27;20023;-77
2021/08/03 06:30:48;;;;;;;6.43;3.08;;;17.20;99.90;;;;;;5141377;27;20487;-77
2021/08/03 06:33:16;;;;;;;6.35;3.40;;;17.30;99.90;;;;;;5142022;27;20062;-77
2021/08/03 06:35:42;;;;;;;5.03;3.22;;;17.30;99.90;;;;;;5142193;27;20050;-76
2021/08/03 06:38:07;;;;;;;5.47;2.70;;;17.20;99.90;;;;;;5140231;27;20050;-76
2021/08/03 06:40:33;;;;;;;9.50;3.58;;;17.10;99.90;;;;;;5141569;27;20026;-75
2021/08/03 06:43:08;;;;;;;9.82;3.15;;;17.00;99.90;;;;;;5142407;27;20015;-75
2021/08/03 06:45:36;;;;;;;3.63;2.58;;;17.00;99.90;;;;;;5137173;27;20023;-78
2021/08/03 06:48:12;;;;;;;6.47;2.50;;;17.10;99.90;;;;;;5136162;27;20477;-75
2021/08/03 06:50:48;;;;;;;5.90;3.30;;;17.20;99.90;;;;;;5135956;27;20019;-76
2021/08/03 06:53:16;;;;;;;4.07;3.00;;;17.10;99.90;;;;;;5142625;27;20429;-77
2021/08/03 06:55:46;;;;;;;15.43;5.13;;;17.20;99.90;;;;;;5136763;27;20027;-76
2021/08/03 06:58:48;;;;;;;4.15;2.42;;;17.40;99.90;;;;;;5140748;27;20545;-77
2021/08/03 07:01:17;;;;;;;9.32;4.00;;;17.50;99.90;;;;;;5129210;27;20181;-76
2021/08/03 07:03:48;;;;;;;23.45;4.65;;;17.60;99.90;;;;;;5140083;27;20027;-75
2021/08/03 07:06:17;;;;;;;11.18;3.70;;;17.70;99.90;;;;;;5140195;27;20046;-76
2021/08/03 07:08:43;;;;;;;7.03;2.85;;;17.60;99.90;;;;;;5140218;27;20035;-75
2021/08/03 07:11:10;;;;;;;13.63;3.58;;;17.70;99.90;;;;;;5142475;27;20276;-77
2021/08/03 07:13:37;;;;;;;8.00;2.30;;;17.90;99.90;;;;;;5139220;27;20057;-76
2021/08/03 07:16:03;;;;;;;13.23;3.28;;;18.30;99.90;;;;;;5135009;27;20023;-75
2021/08/03 07:18:29;;;;;;;11.27;3.50;;;18.90;99.90;;;;;;5138579;27;20023;-76
2021/08/03 08:34:46;;;;;;;3.20;1.95;;;26.60;82.20;;;;;;5111648;27;1162808;-78
2021/08/03 08:37:11;;;;;;;6.97;2.58;;;26.80;81.60;;;;;;5137617;27;20441;-77
2021/08/03 08:39:37;;;;;;;11.02;4.38;;;25.70;82.10;;;;;;5138349;27;20027;-76
2021/08/03 08:42:03;;;;;;;4.68;2.55;;;26.60;81.20;;;;;;5142337;27;20054;-77
2021/08/03 08:44:28;;;;;;;3.85;1.75;;;27.80;77.60;;;;;;5140481;27;20034;-76
2021/08/03 08:46:56;;;;;;;7.47;2.05;;;28.70;73.70;;;;;;5141876;27;20076;-78
2021/08/03 08:49:23;;;;;;;2.83;1.70;;;29.00;70.60;;;;;;5138639;27;20057;-77
2021/08/03 08:51:48;;;;;;;3.83;1.80;;;29.70;69.50;;;;;;5140684;27;20024;-77
2021/08/03 08:54:14;;;;;;;5.15;3.78;;;31.30;64.20;;;;;;5139459;27;20035;-76
2021/08/03 08:56:41;;;;;;;3.35;2.17;;;29.80;64.60;;;;;;5138209;27;20077;-78
2021/08/03 08:59:07;;;;;;;4.93;1.98;;;28.80;65.50;;;;;;5140734;27;20035;-77
2021/08/03 09:01:32;;;;;;;5.30;2.40;;;28.30;66.60;;;;;;5141513;27;20046;-78
2021/08/03 09:03:57;;;;;;;1.85;1.40;;;27.70;66.50;;;;;;5143193;27;20372;-77
2021/08/03 09:06:23;;;;;;;3.78;2.33;;;25.60;69.70;;;;;;5138155;27;20023;-75
2021/08/03 09:08:50;;;;;;;3.47;1.90;;;25.10;72.90;;;;;;5138510;27;20110;-74
2021/08/03 09:11:18;;;;;;;5.47;2.55;;;26.00;71.20;;;;;;5137127;27;20106;-78
2021/08/03 09:13:53;;;;;;;5.93;1.90;;;26.90;70.30;;;;;;5137148;27;20368;-78
2021/08/03 09:16:20;;;;;;;4.93;2.33;;;27.80;68.80;;;;;;5136358;27;20035;-77
2021/08/03 09:18:46;;;;;;;8.10;2.42;;;26.30;68.80;;;;;;5136105;27;20368;-78
2021/08/03 09:21:18;;;;;;;8.80;4.63;;;25.90;71.90;;;;;;5137602;27;20132;-78
2021/08/03 09:23:50;;;;;;;7.85;2.10;;;27.70;68.80;;;;;;5136886;27;20028;-77
2021/08/03 09:26:17;;;;;;;4.97;2.42;;;26.90;68.30;;;;;;5157966;27;20224;-77
2021/08/03 09:29:04;;;;;;;6.75;2.08;;;26.60;70.20;;;;;;5156687;27;20153;-78
2021/08/03 09:31:31;;;;;;;6.15;2.30;;;27.00;69.50;;;;;;5149625;27;20473;-77
2021/08/03 09:33:57;;;;;;;5.30;2.10;;;27.60;68.10;;;;;;5152316;27;20512;-76
2021/08/03 09:36:55;;;;;;;7.00;2.97;;;26.90;67.10;;;;;;5140397;27;20106;-77
2021/08/03 09:39:43;;;;;;;5.75;3.45;;;25.10;70.60;;;;;;5140169;27;20330;-77
2021/08/03 09:42:27;;;;;;;6.20;2.53;;;24.70;72.50;;;;;;5136643;27;20486;-77
2021/08/03 09:44:54;;;;;;;5.35;3.58;;;24.20;73.70;;;;;;5139887;27;20056;-77
2021/08/03 09:47:21;;;;;;;6.82;3.70;;;24.10;73.40;;;;;;5141703;27;20026;-77
2021/08/03 09:49:57;;;;;;;4.15;2.83;;;23.70;74.20;;;;;;5142918;27;20026;-76
2021/08/03 09:52:28;;;;;;;4.00;1.95;;;24.10;72.00;;;;;;5142358;27;20106;-77
2021/08/03 09:55:23;;;;;;;4.60;1.80;;;23.70;71.80;;;;;;5138017;27;20054;-77
2021/08/03 09:57:49;;;;;;;3.72;2.45;;;23.00;72.30;;;;;;5120291;27;20507;-75
2021/08/03 10:00:34;;;;;;;2.00;1.48;;;23.70;72.90;;;;;;5140053;27;20133;-75
2021/08/03 10:03:00;;;;;;;6.32;3.30;;;24.90;68.90;;;;;;5138096;27;20019;-77
2021/08/03 10:05:26;;;;;;;2.08;1.40;;;24.70;69.80;;;;;;5139162;27;20030;-76
2021/08/03 10:07:54;;;;;;;3.75;1.80;;;23.90;70.10;;;;;;5140925;27;20401;-76
2021/08/03 10:10:20;;;;;;;6.07;2.30;;;23.30;72.70;;;;;;5140624;27;20059;-76
2021/08/03 10:12:45;;;;;;;8.52;4.40;;;22.60;74.80;;;;;;5141016;27;20027;-77
2021/08/03 10:15:12;;;;;;;4.85;2.50;;;22.50;75.70;;;;;;5143594;27;20143;-78
2021/08/03 10:17:38;;;;;;;6.07;3.95;;;22.30;77.70;;;;;;5143765;27;20038;-76
2021/08/03 10:20:05;;;;;;;4.38;3.13;;;22.30;77.60;;;;;;5143757;27;20042;-78
2021/08/03 10:22:35;;;;;;;7.32;2.90;;;23.30;76.40;;;;;;5134592;27;20026;-75
2021/08/03 10:25:06;;;;;;;2.15;1.60;;;25.30;70.80;;;;;;5129416;27;20030;-75
2021/08/03 10:27:46;;;;;;;4.95;2.22;;;25.80;70.50;;;;;;5134843;27;20031;-77
2021/08/03 10:30:27;;;;;;;3.42;2.00;;;27.30;67.80;;;;;;5136726;27;20034;-76
2021/08/03 10:32:57;;;;;;;3.55;2.95;;;27.70;65.90;;;;;;5141558;27;20027;-77
2021/08/03 10:35:47;;;;;;;5.70;2.78;;;29.00;65.00;;;;;;5139117;27;20493;-78
2021/08/03 10:38:13;;;;;;;4.25;2.38;;;30.40;62.70;;;;;;5136263;27;20084;-77
2021/08/03 10:40:48;;;;;;;3.72;2.88;;;30.90;61.40;;;;;;5141877;27;20027;-77
2021/08/03 10:43:23;;;;;;;5.50;2.15;;;32.20;55.80;;;;;;5139982;27;20218;-77
2021/08/03 10:46:29;;;;;;;2.47;1.90;;;31.90;56.30;;;;;;5139322;27;20478;-77
2021/08/03 10:48:56;;;;;;;3.53;2.03;;;30.90;57.70;;;;;;5044965;28;20103;-76
2021/08/03 10:51:24;;;;;;;3.50;1.88;;;30.80;56.80;;;;;;5122243;27;20050;-76
2021/08/03 10:54:11;;;;;;;3.67;2.22;;;29.70;57.60;;;;;;5140927;27;20046;-76
2021/08/03 10:56:53;;;;;;;3.17;2.35;;;30.10;57.90;;;;;;5135415;27;20102;-77
2021/08/03 10:59:37;;;;;;;4.80;2.58;;;29.60;59.00;;;;;;5140123;27;20587;-76
2021/08/03 11:02:03;;;;;;;2.88;2.20;;;27.90;61.20;;;;;;5133983;27;20517;-76
2021/08/03 11:04:48;;;;;;;6.30;2.50;;;26.70;62.80;;;;;;5139899;27;20023;-77
2021/08/03 11:07:32;;;;;;;4.28;2.60;;;26.00;64.30;;;;;;5130146;27;20619;-76
2021/08/03 11:10:14;;;;;;;6.00;3.47;;;26.00;64.30;;;;;;5135368;27;20026;-76
2021/08/03 11:12:46;;;;;;;3.30;2.63;;;26.00;63.00;;;;;;5132307;27;20128;-76
2021/08/03 11:15:21;;;;;;;4.43;2.30;;;26.00;63.70;;;;;;5136227;27;20039;-76
2021/08/03 11:17:56;;;;;;;2.53;1.60;;;24.70;65.40;;;;;;5135473;27;20027;-76
2021/08/03 11:20:33;;;;;;;2.67;1.95;;;24.10;67.00;;;;;;5133296;27;20058;-75
2021/08/03 11:23:00;;;;;;;3.30;2.47;;;24.40;67.50;;;;;;5141831;27;20473;-78
2021/08/03 11:25:26;;;;;;;2.78;2.03;;;26.40;64.10;;;;;;5141943;27;20022;-76
2021/08/03 11:27:52;;;;;;;3.85;2.70;;;26.60;64.30;;;;;;5141843;27;20076;-77
2021/08/03 11:30:18;;;;;;;5.25;3.40;;;26.50;64.80;;;;;;5142523;27;20416;-76
2021/08/03 11:32:47;;;;;;;5.05;3.28;;;27.40;63.90;;;;;;5148375;27;20053;-77
2021/08/03 11:35:28;;;;;;;2.60;2.35;;;28.90;61.80;;;;;;5151825;27;20043;-76
2021/08/03 11:37:53;;;;;;;6.03;3.03;;;29.50;59.60;;;;;;5140801;27;20026;-76
2021/08/03 11:40:20;;;;;;;6.82;3.00;;;28.50;61.00;;;;;;5141410;27;20027;-77
2021/08/03 11:42:46;;;;;;;4.40;2.55;;;30.30;58.90;;;;;;5143415;27;20440;-76
2021/08/03 11:45:21;;;;;;;3.40;2.15;;;30.80;57.60;;;;;;5140562;27;20159;-77
2021/08/03 11:47:50;;;;;;;2.88;2.10;;;31.40;55.20;;;;;;5139257;27;20442;-76
2021/08/03 11:50:26;;;;;;;2.67;2.33;;;30.70;56.40;;;;;;5140917;27;20068;-76
2021/08/03 11:52:52;;;;;;;3.60;2.10;;;31.30;55.40;;;;;;5137977;27;20022;-78
2021/08/03 11:55:17;;;;;;;5.35;2.30;;;31.40;54.10;;;;;;5138497;27;20027;-78
2021/08/03 11:57:43;;;;;;;2.72;1.98;;;31.30;54.50;;;;;;5135891;27;20473;-76
2021/08/03 12:00:20;;;;;;;3.15;2.47;;;30.90;55.00;;;;;;5140090;27;20027;-77
2021/08/03 12:02:47;;;;;;;4.57;2.20;;;30.80;55.00;;;;;;5138851;27;20046;-75
2021/08/03 12:05:19;;;;;;;3.78;2.10;;;29.90;55.70;;;;;;5137297;27;20030;-76
2021/08/03 12:07:48;;;;;;;4.22;2.05;;;28.80;57.30;;;;;;5136154;27;20027;-77
2021/08/03 12:10:14;;;;;;;4.10;1.90;;;28.70;56.90;;;;;;5143917;27;20023;-76
2021/08/03 12:12:45;;;;;;;4.25;2.58;;;28.20;57.30;;;;;;5139649;27;20108;-76
2021/08/03 12:15:13;;;;;;;2.35;1.65;;;28.40;57.40;;;;;;5142364;27;20027;-76
2021/08/03 12:17:40;;;;;;;2.92;1.90;;;28.80;55.90;;;;;;5142466;27;20501;-77
2021/08/03 12:20:36;;;;;;;3.78;2.30;;;30.50;53.60;;;;;;5139251;27;20043;-78
2021/08/03 12:23:28;;;;;;;3.63;1.63;;;30.70;54.00;;;;;;5142265;27;20075;-77
2021/08/03 12:26:00;;;;;;;4.18;2.17;;;31.00;52.10;;;;;;5140564;27;20100;-76
2021/08/03 12:28:30;;;;;;;5.70;2.72;;;30.00;53.90;;;;;;5138384;27;20572;-77
2021/08/03 12:30:56;;;;;;;2.78;1.92;;;30.40;54.70;;;;;;5138802;27;20323;-78
2021/08/03 12:33:33;;;;;;;2.08;1.90;;;32.10;51.90;;;;;;5137823;27;20046;-77
2021/08/03 12:36:04;;;;;;;2.58;2.08;;;31.20;51.50;;;;;;5139044;27;20079;-77
2021/08/03 12:38:30;;;;;;;3.10;1.90;;;29.80;53.70;;;;;;5141623;27;20540;-77
2021/08/03 12:41:12;;;;;;;3.35;2.03;;;30.90;52.80;;;;;;5137282;27;20389;-76
2021/08/03 12:43:39;;;;;;;2.97;2.10;;;32.60;51.40;;;;;;5135569;27;20018;-77
2021/08/03 12:46:05;;;;;;;2.03;1.65;;;31.40;51.60;;;;;;5139354;27;20034;-76
2021/08/03 12:48:31;;;;;;;3.35;1.95;;;32.10;50.80;;;;;;5142221;27;20029;-77
2021/08/03 12:51:02;;;;;;;3.60;1.83;;;32.80;50.50;;;;;;5142856;27;20101;-77
2021/08/03 12:53:30;;;;;;;1.60;1.50;;;31.90;49.20;;;;;;5150016;27;20039;-77
2021/08/03 12:55:59;;;;;;;4.22;2.67;;;31.00;50.90;;;;;;5149707;27;20083;-77
2021/08/03 12:58:44;;;;;;;2.85;1.88;;;30.90;51.50;;;;;;5144996;27;20031;-77
2021/08/03 13:01:22;;;;;;;3.05;2.20;;;31.20;50.80;;;;;;5139541;27;20530;-77
2021/08/03 13:03:50;;;;;;;4.72;2.42;;;30.30;51.60;;;;;;5146429;27;20050;-76
2021/08/03 13:06:16;;;;;;;4.60;2.63;;;29.50;53.30;;;;;;5146433;27;20083;-76
2021/08/03 13:08:44;;;;;;;3.05;2.45;;;29.60;53.90;;;;;;5147964;27;20046;-76
2021/08/03 13:11:10;;;;;;;4.40;2.60;;;29.00;52.90;;;;;;5155568;27;20585;-78
2021/08/03 13:13:37;;;;;;;2.58;2.17;;;29.00;53.50;;;;;;5147225;27;20035;-78
2021/08/03 13:16:04;;;;;;;5.30;2.40;;;29.00;52.90;;;;;;5148890;27;20018;-77
2021/08/03 13:18:31;;;;;;;2.30;2.10;;;29.70;53.10;;;;;;5146060;27;20027;-77
2021/08/03 13:21:00;;;;;;;6.95;2.78;;;30.40;52.70;;;;;;5150654;27;20019;-75
2021/08/03 13:23:26;;;;;;;6.05;2.50;;;29.10;52.90;;;;;;5148621;27;20029;-76
2021/08/03 13:25:52;;;;;;;3.05;2.08;;;28.70;54.10;;;;;;5148021;27;20031;-76
2021/08/03 13:28:17;;;;;;;2.97;2.40;;;28.80;52.00;;;;;;5132518;27;20073;-76
2021/08/03 13:30:43;;;;;;;2.90;2.58;;;26.90;54.20;;;;;;5133095;27;20015;-78
2021/08/03 13:33:09;;;;;;;4.30;2.03;;;26.00;56.20;;;;;;5138074;27;20027;-76
2021/08/03 13:35:35;;;;;;;5.25;2.63;;;26.00;56.90;;;;;;5142898;27;20022;-75
2021/08/03 13:38:02;;;;;;;3.75;2.15;;;25.50;57.80;;;;;;5141329;27;20023;-76
2021/08/03 13:40:28;;;;;;;5.25;2.47;;;25.90;57.50;;;;;;5143460;27;20114;-75
2021/08/03 13:42:53;;;;;;;6.38;2.35;;;26.40;58.00;;;;;;5143675;27;20110;-76
2021/08/03 13:45:19;;;;;;;3.85;2.47;;;26.50;56.20;;;;;;5139988;27;20038;-76
2021/08/03 13:47:44;;;;;;;4.18;1.95;;;26.80;56.30;;;;;;5143316;27;20031;-75
2021/08/03 13:50:10;;;;;;;4.72;2.60;;;27.00;55.40;;;;;;5143297;27;20057;-76
2021/08/03 13:52:36;;;;;;;2.90;2.20;;;26.30;56.30;;;;;;5132364;27;20032;-76
2021/08/03 13:55:01;;;;;;;4.60;2.30;;;25.90;57.70;;;;;;5139893;27;20450;-76
2021/08/03 13:57:27;;;;;;;3.42;2.45;;;25.80;57.90;;;;;;5143350;27;20058;-76
2021/08/03 13:59:52;;;;;;;3.30;2.30;;;25.50;58.40;;;;;;5140592;27;20101;-77
2021/08/03 14:02:18;;;;;;;3.92;2.50;;;25.20;58.20;;;;;;5141016;27;20023;-77
2021/08/03 14:04:43;;;;;;;3.90;2.25;;;25.20;59.30;;;;;;5138475;27;20014;-77
2021/08/03 14:07:09;;;;;;;4.18;2.40;;;25.40;58.60;;;;;;5138427;27;20050;-77
2021/08/03 14:09:34;;;;;;;4.45;2.28;;;25.50;58.50;;;;;;5143493;27;20016;-77
2021/08/03 14:12:00;;;;;;;2.97;2.15;;;25.10;58.10;;;;;;5134624;27;20110;-82